createdAt,value
2022-10-19T00:01:17.356Z,5.20
2022-10-19T00:06:19.716Z,5.30
2022-10-19T00:08:48.196Z,5.63
2022-10-19T00:11:18.308Z,5.43
2022-10-19T00:13:46.781Z,6.32
2022-10-19T00:16:17.140Z,5.13
2022-10-19T00:18:45.696Z,5.30
2022-10-19T00:21:17.461Z,6.85
2022-10-19T00:23:46.907Z,6.32
2022-10-19T00:26:15.356Z,6.68
2022-10-19T00:28:45.536Z,6.72
2022-10-19T00:31:15.461Z,6.45
2022-10-19T00:33:44.480Z,5.57
2022-10-19T00:36:17.225Z,5.70
2022-10-19T00:38:46.033Z,6.45
2022-10-19T00:41:14.780Z,6.72
2022-10-19T00:43:56.225Z,5.40
2022-10-19T00:46:24.762Z,5.25
2022-10-19T00:48:55.796Z,5.80
2022-10-19T00:51:24.339Z,5.72
2022-10-19T00:53:55.542Z,8.07
2022-10-19T00:56:23.866Z,6.03
2022-10-19T00:58:52.212Z,9.00
2022-10-19T01:01:23.685Z,7.65
2022-10-19T01:03:52.282Z,7.90
2022-10-19T01:06:22.091Z,9.32
2022-10-19T01:08:50.440Z,8.68
2022-10-19T01:11:30.867Z,10.35
2022-10-19T01:14:09.241Z,9.70
2022-10-19T01:16:48.003Z,10.45
2022-10-19T01:19:34.406Z,11.75
2022-10-19T01:22:12.302Z,11.20
2022-10-19T01:27:31.266Z,12.73
2022-10-19T01:30:04.832Z,13.43
2022-10-19T01:32:40.027Z,14.60
2022-10-19T01:35:12.463Z,13.82
2022-10-19T01:37:45.918Z,14.95
2022-10-19T01:40:18.880Z,16.88
2022-10-19T01:42:50.434Z,15.95
2022-10-19T01:45:22.753Z,16.13
2022-10-19T01:47:55.591Z,16.30
2022-10-19T01:50:28.258Z,15.30
2022-10-19T01:52:57.155Z,16.70
2022-10-19T01:55:26.629Z,14.88
2022-10-19T01:57:58.570Z,15.13
2022-10-19T02:00:28.969Z,14.40
2022-10-19T02:02:57.673Z,14.50
2022-10-19T02:05:30.509Z,14.70
2022-10-19T02:08:00.778Z,12.80
2022-10-19T02:10:29.966Z,14.05
2022-10-19T02:12:59.773Z,13.77
2022-10-19T02:15:30.949Z,14.07
2022-10-19T02:18:00.430Z,13.65
2022-10-19T02:20:37.473Z,15.95
2022-10-19T02:23:06.466Z,14.18
2022-10-19T02:25:35.595Z,16.17
2022-10-19T02:28:05.067Z,16.48
2022-10-19T02:30:35.228Z,15.80
2022-10-19T02:33:03.345Z,15.82
2022-10-19T02:35:32.244Z,16.25
2022-10-19T02:38:02.322Z,15.93
2022-10-19T02:40:31.334Z,15.95
2022-10-19T02:43:02.977Z,17.67
2022-10-19T02:45:35.291Z,15.82
2022-10-19T02:48:05.575Z,15.98
2022-10-19T02:50:34.163Z,15.40
2022-10-19T02:53:02.624Z,15.45
2022-10-19T02:55:31.569Z,16.00
2022-10-19T02:57:59.917Z,15.32
2022-10-19T03:00:28.285Z,15.98
2022-10-19T03:02:58.000Z,15.57
2022-10-19T03:05:26.480Z,16.20
2022-10-19T03:07:54.960Z,18.15
2022-10-19T03:10:23.452Z,15.32
2022-10-19T03:12:51.665Z,15.68
2022-10-19T03:15:20.445Z,16.05
2022-10-19T03:17:48.635Z,16.80
2022-10-19T03:20:18.682Z,18.75
2022-10-19T03:22:46.940Z,16.08
2022-10-19T03:25:15.350Z,15.05
2022-10-19T03:27:43.607Z,14.68
2022-10-19T03:30:12.584Z,14.50
2022-10-19T03:32:40.811Z,15.52
2022-10-19T03:35:09.466Z,15.38
2022-10-19T03:37:39.071Z,14.98
2022-10-19T03:40:08.225Z,16.52
2022-10-19T03:42:36.398Z,13.82
2022-10-19T03:45:05.674Z,13.55
2022-10-19T03:47:34.032Z,11.75
2022-10-19T03:50:02.541Z,11.98
2022-10-19T03:52:30.753Z,10.48
2022-10-19T03:55:00.636Z,13.18
2022-10-19T03:57:28.903Z,15.45
2022-10-19T03:59:57.275Z,14.18
2022-10-19T04:02:25.657Z,15.30
2022-10-19T04:04:54.153Z,13.25
2022-10-19T04:07:22.393Z,11.35
2022-10-19T04:09:50.763Z,11.27
2022-10-19T04:12:20.290Z,12.45
2022-10-19T04:14:58.138Z,10.88
2022-10-19T04:17:26.813Z,15.88
2022-10-19T04:19:55.224Z,11.82
2022-10-19T04:22:23.359Z,14.20
2022-10-19T04:24:51.713Z,13.90
2022-10-19T04:27:21.246Z,13.60
2022-10-19T04:29:49.643Z,13.77
2022-10-19T04:32:17.800Z,13.65
2022-10-19T04:34:46.207Z,13.38
2022-10-19T04:37:14.379Z,11.40
2022-10-19T04:39:43.891Z,12.35
2022-10-19T04:42:12.125Z,12.20
2022-10-19T04:44:41.814Z,12.90
2022-10-19T04:47:09.945Z,16.10
2022-10-19T04:49:38.401Z,14.77
2022-10-19T04:52:06.871Z,13.77
2022-10-19T04:54:35.321Z,12.55
2022-10-19T04:57:03.396Z,14.82
2022-10-19T04:59:31.634Z,18.90
2022-10-19T05:02:01.217Z,15.77
2022-10-19T05:04:29.524Z,17.33
2022-10-19T05:06:57.802Z,12.77
2022-10-19T05:09:26.493Z,15.13
2022-10-19T05:11:54.657Z,16.20
2022-10-19T05:14:23.229Z,15.65
2022-10-19T05:16:51.469Z,17.38
2022-10-19T05:19:21.382Z,17.10
2022-10-19T05:21:50.202Z,15.88
2022-10-19T05:24:19.027Z,14.75
2022-10-19T05:26:47.333Z,13.10
2022-10-19T05:29:15.755Z,13.48
2022-10-19T05:31:44.019Z,14.48
2022-10-19T05:34:15.153Z,16.30
2022-10-19T05:36:45.227Z,20.17
2022-10-19T05:39:15.746Z,12.32
2022-10-19T05:41:44.621Z,14.00
2022-10-19T05:44:15.767Z,20.15
2022-10-19T05:46:45.557Z,16.83
2022-10-19T05:49:15.581Z,15.88
2022-10-19T05:51:45.350Z,17.63
2022-10-19T05:54:15.087Z,16.20
2022-10-19T05:56:43.755Z,17.60
2022-10-19T05:59:15.816Z,12.77
2022-10-19T06:01:44.035Z,16.35
2022-10-19T06:04:14.294Z,13.00
2022-10-19T06:06:43.562Z,14.25
2022-10-19T06:09:13.526Z,12.15
2022-10-19T06:11:42.831Z,12.45
2022-10-19T06:14:14.527Z,11.02
2022-10-19T06:16:42.961Z,13.95
2022-10-19T06:19:11.284Z,13.65
2022-10-19T06:21:41.956Z,11.52
2022-10-19T06:24:14.737Z,13.35
2022-10-19T06:26:42.886Z,14.30
2022-10-19T06:29:11.217Z,10.95
2022-10-19T06:31:39.588Z,15.25
2022-10-19T06:34:08.170Z,11.88
2022-10-19T06:36:36.872Z,15.30
2022-10-19T06:39:05.744Z,15.32
2022-10-19T06:41:35.440Z,14.80
2022-10-19T06:44:03.962Z,17.92
2022-10-19T06:46:32.653Z,16.90
2022-10-19T06:49:02.669Z,17.42
2022-10-19T06:51:34.049Z,19.48
2022-10-19T06:54:02.490Z,18.58
2022-10-19T06:56:30.645Z,17.60
2022-10-19T06:59:00.456Z,20.30
2022-10-19T07:01:28.827Z,21.45
2022-10-19T07:03:57.320Z,20.08
2022-10-19T07:06:27.648Z,17.15
2022-10-19T07:08:55.980Z,18.70
2022-10-19T07:11:24.157Z,17.98
2022-10-19T07:13:53.985Z,17.35
2022-10-19T07:16:23.552Z,21.70
2022-10-19T07:18:53.253Z,16.00
2022-10-19T07:21:22.459Z,26.33
2022-10-19T07:23:51.326Z,15.73
2022-10-19T07:26:23.567Z,17.30
2022-10-19T07:28:52.333Z,19.75
2022-10-19T07:31:24.531Z,19.55
2022-10-19T07:33:54.592Z,15.32
2022-10-19T07:36:23.426Z,17.00
2022-10-19T07:38:52.040Z,17.73
2022-10-19T07:41:22.362Z,14.07
2022-10-19T07:43:51.275Z,11.77
2022-10-19T07:46:20.747Z,14.82
2022-10-19T07:48:50.481Z,14.15
2022-10-19T07:51:19.516Z,13.07
2022-10-19T07:53:48.265Z,12.07
2022-10-19T07:56:18.140Z,14.50
2022-10-19T07:58:47.071Z,15.57
2022-10-19T08:01:16.864Z,14.35
2022-10-19T08:06:36.651Z,15.90
2022-10-19T08:09:05.460Z,11.38
2022-10-19T08:11:35.668Z,17.80
2022-10-19T08:14:04.689Z,10.95
2022-10-19T08:16:36.693Z,10.15
2022-10-19T08:19:07.191Z,10.27
2022-10-19T08:21:37.700Z,13.65
2022-10-19T08:24:06.846Z,7.93
2022-10-19T08:26:36.701Z,10.40
2022-10-19T08:29:06.598Z,9.23
2022-10-19T08:31:34.989Z,7.30
2022-10-19T08:34:03.395Z,8.55
2022-10-19T08:36:32.781Z,10.82
2022-10-19T08:39:03.205Z,7.22
2022-10-19T08:41:34.794Z,9.00
2022-10-19T08:44:20.359Z,11.32
2022-10-19T08:46:53.752Z,10.98
2022-10-19T08:49:25.488Z,5.53
2022-10-19T08:54:28.641Z,9.82
2022-10-19T08:57:06.067Z,8.32
2022-10-19T08:59:40.441Z,4.85
2022-10-19T09:02:15.511Z,10.10
2022-10-19T09:04:47.017Z,7.95
2022-10-19T09:07:26.082Z,8.48
2022-10-19T09:09:58.808Z,7.47
2022-10-19T09:12:34.985Z,7.68
2022-10-19T09:15:06.006Z,10.27
2022-10-19T09:17:34.308Z,7.68
2022-10-19T09:20:15.729Z,9.38
2022-10-19T09:22:44.896Z,10.20
2022-10-19T09:25:19.953Z,7.22
2022-10-19T09:27:50.242Z,10.73
2022-10-19T09:30:21.199Z,9.38
2022-10-19T09:32:50.469Z,7.77
2022-10-19T09:35:24.247Z,5.50
2022-10-19T09:37:52.966Z,5.53
2022-10-19T09:40:25.951Z,11.30
2022-10-19T09:42:58.527Z,5.80
2022-10-19T09:45:35.314Z,4.68
2022-10-19T09:48:12.194Z,5.70
2022-10-19T09:50:44.985Z,6.18
2022-10-19T09:53:19.183Z,3.55
2022-10-19T09:55:58.511Z,5.03
2022-10-19T09:58:32.075Z,7.47
2022-10-19T10:01:03.110Z,6.75
2022-10-19T10:03:33.275Z,4.13
2022-10-19T10:06:04.586Z,5.20
2022-10-19T10:08:34.932Z,11.15
2022-10-19T10:11:10.251Z,6.53
2022-10-19T10:13:40.183Z,5.80
2022-10-19T10:16:10.458Z,7.23
2022-10-19T10:18:45.676Z,5.82
2022-10-19T10:21:17.072Z,4.32
2022-10-19T10:24:00.548Z,5.22
2022-10-19T10:26:30.398Z,5.28
2022-10-19T10:29:01.354Z,4.13
2022-10-19T10:31:31.180Z,6.63
2022-10-19T10:34:10.922Z,6.05
2022-10-19T10:36:52.579Z,8.73
2022-10-19T10:39:20.789Z,7.05
2022-10-19T10:41:50.540Z,6.38
2022-10-19T10:44:20.962Z,7.35
2022-10-19T10:46:53.278Z,7.13
2022-10-19T10:49:26.193Z,5.72
2022-10-19T10:51:56.547Z,5.30
2022-10-19T10:54:26.841Z,7.18
2022-10-19T10:57:13.160Z,8.60
2022-10-19T10:59:48.342Z,9.13
2022-10-19T11:02:29.625Z,6.30
2022-10-19T11:05:01.209Z,6.97
2022-10-19T11:07:30.145Z,5.70
2022-10-19T11:10:00.436Z,6.53
2022-10-19T11:12:35.765Z,4.70
2022-10-19T11:15:12.443Z,4.53
2022-10-19T11:17:54.866Z,5.85
2022-10-19T11:20:24.282Z,6.82
2022-10-19T11:22:59.486Z,6.32
2022-10-19T11:25:37.515Z,5.03
2022-10-19T11:28:16.669Z,5.03
2022-10-19T11:30:55.597Z,5.57
2022-10-19T11:33:36.205Z,5.40
2022-10-19T11:36:12.909Z,4.25
2022-10-19T11:38:51.804Z,5.18
2022-10-19T11:41:28.508Z,4.78
2022-10-19T11:44:10.574Z,4.65
2022-10-19T11:46:42.831Z,4.65
2022-10-19T11:49:22.820Z,6.18
2022-10-19T11:51:57.544Z,5.60
2022-10-19T11:54:35.510Z,6.70
2022-10-19T11:57:11.354Z,7.03
2022-10-19T11:59:52.567Z,7.25
2022-10-19T12:02:39.267Z,6.90
2022-10-19T12:05:11.468Z,10.55
2022-10-19T12:07:56.663Z,8.48
2022-10-19T12:10:30.454Z,6.75
2022-10-19T12:13:02.357Z,5.00
2022-10-19T12:15:35.320Z,4.80
2022-10-19T12:18:10.198Z,5.88
2022-10-19T12:20:41.305Z,7.20
2022-10-19T12:23:23.126Z,8.07
2022-10-19T12:25:52.406Z,5.15
2022-10-19T12:28:23.729Z,7.57
2022-10-19T12:33:24.934Z,9.00
2022-10-19T12:36:02.190Z,7.43
2022-10-19T12:38:42.281Z,4.40
2022-10-19T12:41:21.462Z,4.43
2022-10-19T12:44:01.899Z,6.72
2022-10-19T12:46:37.324Z,4.17
2022-10-19T12:49:38.564Z,5.43
2022-10-19T12:52:08.330Z,5.45
2022-10-19T12:54:39.482Z,5.25
2022-10-19T13:00:00.637Z,6.88
2022-10-19T13:05:01.501Z,9.02
2022-10-19T13:07:37.286Z,6.32
2022-10-19T13:10:07.389Z,4.05
2022-10-19T13:12:44.827Z,9.65
2022-10-19T13:15:49.521Z,6.75
2022-10-19T13:19:02.729Z,5.97
2022-10-19T13:21:54.087Z,6.97
2022-10-19T13:24:34.701Z,4.78
2022-10-19T13:27:27.363Z,5.18
2022-10-19T13:29:55.781Z,5.40
2022-10-19T13:32:48.035Z,4.80
2022-10-19T13:35:31.628Z,4.50
2022-10-19T13:38:24.320Z,4.90
2022-10-19T13:41:08.041Z,6.85
2022-10-19T13:43:40.327Z,5.50
2022-10-19T13:46:14.933Z,4.85
2022-10-19T13:49:04.858Z,6.53
2022-10-19T13:51:38.779Z,6.43
2022-10-19T13:54:17.782Z,8.07
2022-10-19T13:56:57.350Z,11.38
2022-10-19T13:59:57.562Z,6.15
2022-10-19T14:02:55.176Z,4.07
2022-10-19T14:08:22.733Z,6.50
2022-10-19T14:11:01.098Z,4.93
2022-10-19T14:13:30.545Z,6.43
2022-10-19T14:16:00.658Z,6.55
2022-10-19T14:18:31.271Z,4.28
2022-10-19T14:21:00.833Z,4.55
2022-10-19T14:23:31.848Z,3.67
2022-10-19T14:26:01.383Z,3.97
2022-10-19T14:28:29.897Z,6.30
2022-10-19T14:30:59.983Z,14.75
2022-10-19T14:33:28.763Z,4.22
2022-10-19T14:35:57.423Z,3.17
2022-10-19T14:38:32.862Z,4.53
2022-10-19T14:41:01.169Z,3.53
2022-10-19T14:43:30.936Z,3.55
2022-10-19T14:46:14.604Z,7.57
2022-10-19T14:48:45.564Z,5.35
2022-10-19T14:51:28.057Z,18.38
2022-10-19T14:54:00.637Z,16.83
2022-10-19T14:56:34.854Z,12.52
2022-10-19T14:59:06.205Z,7.97
2022-10-19T15:01:35.026Z,8.80
2022-10-19T15:04:03.788Z,5.28
2022-10-19T15:06:35.727Z,5.53
2022-10-19T15:09:12.101Z,3.72
2022-10-19T15:11:49.858Z,5.20
2022-10-19T15:14:22.037Z,4.32
2022-10-19T15:16:53.362Z,4.80
2022-10-19T15:19:27.786Z,4.10
2022-10-19T15:22:13.180Z,7.32
2022-10-19T15:24:57.160Z,6.55
2022-10-19T15:27:31.259Z,4.55
2022-10-19T15:30:05.660Z,4.85
2022-10-19T15:32:36.606Z,4.10
2022-10-19T15:35:12.996Z,5.13
2022-10-19T15:37:43.656Z,8.60
2022-10-19T15:40:18.431Z,9.48
2022-10-19T15:42:48.800Z,6.55
2022-10-19T15:45:35.598Z,7.67
2022-10-19T15:48:20.299Z,10.10
2022-10-19T15:50:49.622Z,6.57
2022-10-19T15:53:18.012Z,8.48
2022-10-19T15:55:48.057Z,7.53
2022-10-19T15:58:16.483Z,9.02
2022-10-19T16:00:45.468Z,10.18
2022-10-19T16:03:14.079Z,9.60
2022-10-19T16:05:42.380Z,8.07
2022-10-19T16:08:12.477Z,10.18
2022-10-19T16:10:40.979Z,8.45
2022-10-19T16:13:10.445Z,8.23
2022-10-19T16:15:38.766Z,9.23
2022-10-19T16:18:06.872Z,8.35
2022-10-19T16:20:35.259Z,9.65
2022-10-19T16:23:03.656Z,6.38
2022-10-19T16:25:31.995Z,8.90
2022-10-19T16:28:03.148Z,5.70
2022-10-19T16:30:32.859Z,7.03
2022-10-19T16:33:01.098Z,8.57
2022-10-19T16:35:29.330Z,7.10
2022-10-19T16:37:59.170Z,6.32
2022-10-19T16:40:27.517Z,9.35
2022-10-19T16:42:58.853Z,9.35
2022-10-19T16:45:27.299Z,9.98
2022-10-19T16:47:56.856Z,11.43
2022-10-19T16:50:25.318Z,13.73
2022-10-19T16:53:04.935Z,15.45
2022-10-19T16:55:33.901Z,12.65
2022-10-19T16:58:01.984Z,16.58
2022-10-19T17:00:30.485Z,17.45
2022-10-19T17:03:00.113Z,13.52
2022-10-19T17:05:28.493Z,12.13
2022-10-19T17:07:56.627Z,13.00
2022-10-19T17:10:25.176Z,11.77
2022-10-19T17:12:53.420Z,11.02
2022-10-19T17:15:42.065Z,10.07
2022-10-19T17:18:11.457Z,10.68
2022-10-19T17:20:39.957Z,11.68
2022-10-19T17:23:08.072Z,10.93
2022-10-19T17:25:36.454Z,8.88
2022-10-19T17:28:04.645Z,14.10
2022-10-19T17:30:32.978Z,14.25
2022-10-19T17:33:01.027Z,13.77
2022-10-19T17:35:30.769Z,13.38
2022-10-19T17:37:59.064Z,16.60
2022-10-19T17:40:27.540Z,12.02
2022-10-19T17:42:55.686Z,12.80
2022-10-19T17:45:24.103Z,9.00
2022-10-19T17:47:52.191Z,14.02
2022-10-19T17:50:20.575Z,11.63
2022-10-19T17:52:50.076Z,11.30
2022-10-19T17:55:18.652Z,10.75
2022-10-19T17:57:46.921Z,9.90
2022-10-19T18:00:16.239Z,10.82
2022-10-19T18:02:45.910Z,10.00
2022-10-19T18:05:14.417Z,8.20
2022-10-19T18:07:44.782Z,10.38
2022-10-19T18:10:15.520Z,8.73
2022-10-19T18:12:43.592Z,6.05
2022-10-19T18:15:11.920Z,8.25
2022-10-19T18:17:40.325Z,9.35
2022-10-19T18:20:09.954Z,8.25
2022-10-19T18:22:38.413Z,7.95
2022-10-19T18:25:07.502Z,8.02
2022-10-19T18:27:37.590Z,7.40
2022-10-19T18:30:06.814Z,6.22
2022-10-19T18:32:36.205Z,7.82
2022-10-19T18:35:05.190Z,7.10
2022-10-19T18:37:33.302Z,7.38
2022-10-19T18:40:01.721Z,5.88
2022-10-19T18:42:30.633Z,7.28
2022-10-19T18:45:00.670Z,6.60
2022-10-19T18:47:28.793Z,5.85
2022-10-19T18:49:57.417Z,7.18
2022-10-19T18:52:25.587Z,6.57
2022-10-19T18:54:53.961Z,7.45
2022-10-19T18:57:22.194Z,8.45
2022-10-19T18:59:50.698Z,5.70
2022-10-19T19:02:22.700Z,6.53
2022-10-19T19:04:56.634Z,4.35
2022-10-19T19:07:24.870Z,4.47
2022-10-19T19:09:53.211Z,4.07
2022-10-19T19:12:22.615Z,4.00
2022-10-19T19:14:50.982Z,5.13
2022-10-19T19:17:20.452Z,3.83
2022-10-19T19:19:48.858Z,4.70
2022-10-19T19:22:18.044Z,4.30
2022-10-19T19:24:46.756Z,4.25
2022-10-19T19:27:15.000Z,7.55
2022-10-19T19:29:44.008Z,5.32
2022-10-19T19:32:12.119Z,6.38
2022-10-19T19:34:41.808Z,5.25
2022-10-19T19:37:11.237Z,5.32
2022-10-19T19:39:39.973Z,4.43
2022-10-19T19:42:08.778Z,4.90
2022-10-19T19:44:37.110Z,4.78
2022-10-19T19:47:05.907Z,4.82
2022-10-19T19:49:34.378Z,4.65
2022-10-19T19:52:03.950Z,3.80
2022-10-19T19:54:32.539Z,5.65
2022-10-19T19:57:00.674Z,3.72
2022-10-19T19:59:30.414Z,4.70
2022-10-19T20:01:58.579Z,4.68
2022-10-19T20:04:27.232Z,4.93
2022-10-19T20:06:55.321Z,6.10
2022-10-19T20:09:25.107Z,5.47
2022-10-19T20:11:53.275Z,7.28
2022-10-19T20:14:21.666Z,5.35
2022-10-19T20:16:49.783Z,7.65
2022-10-19T20:19:18.254Z,5.80
2022-10-19T20:21:46.279Z,7.57
2022-10-19T20:24:14.666Z,7.53
2022-10-19T20:26:44.120Z,7.05
2022-10-19T20:29:12.551Z,6.15
2022-10-19T20:31:41.390Z,7.05
2022-10-19T20:34:14.853Z,5.97
2022-10-19T20:36:43.183Z,6.80
2022-10-19T20:39:11.874Z,8.98
2022-10-19T20:41:39.947Z,8.40
2022-10-19T20:44:09.685Z,9.40
2022-10-19T20:46:37.862Z,7.93
2022-10-19T20:49:07.430Z,6.57
2022-10-19T20:51:37.165Z,10.48
2022-10-19T20:54:07.535Z,6.88
2022-10-19T20:56:37.054Z,8.73
2022-10-19T20:59:07.352Z,8.68
2022-10-19T21:01:38.615Z,9.38
2022-10-19T21:06:39.582Z,11.05
2022-10-19T21:09:08.720Z,11.30
2022-10-19T21:11:38.534Z,8.73
2022-10-19T21:14:09.762Z,8.73
2022-10-19T21:16:39.669Z,10.18
2022-10-19T21:19:09.604Z,9.07
2022-10-19T21:21:41.625Z,10.50
2022-10-19T21:24:12.809Z,11.65
2022-10-19T21:26:41.122Z,11.77
2022-10-19T21:29:10.700Z,9.32
2022-10-19T21:31:47.830Z,9.80
2022-10-19T21:34:21.430Z,11.90
2022-10-19T21:36:49.747Z,9.25
2022-10-19T21:39:18.757Z,9.98
2022-10-19T21:41:47.377Z,9.23
2022-10-19T21:44:16.474Z,10.95
2022-10-19T21:46:48.227Z,11.98
2022-10-19T21:49:16.589Z,9.48
2022-10-19T21:51:45.935Z,10.10
2022-10-19T21:54:15.637Z,11.70
2022-10-19T21:56:43.893Z,11.95
2022-10-19T21:59:13.142Z,10.18
2022-10-19T22:01:41.909Z,10.15
2022-10-19T22:04:14.162Z,10.20
2022-10-19T22:06:42.710Z,13.15
2022-10-19T22:09:14.645Z,14.50
2022-10-19T22:11:42.945Z,11.55
2022-10-19T22:14:13.308Z,10.32
2022-10-19T22:16:41.961Z,12.02
2022-10-19T22:19:12.004Z,10.48
2022-10-19T22:21:40.355Z,9.93
2022-10-19T22:24:11.635Z,10.30
2022-10-19T22:26:42.024Z,10.77
2022-10-19T22:29:10.563Z,12.77
2022-10-19T22:31:39.464Z,11.65
2022-10-19T22:34:09.589Z,11.48
2022-10-19T22:36:39.310Z,11.70
2022-10-19T22:39:08.404Z,12.82
2022-10-19T22:42:31.789Z,12.63
2022-10-19T22:45:00.485Z,12.75
2022-10-19T22:47:28.662Z,12.93
2022-10-19T22:49:57.189Z,14.10
2022-10-19T22:52:26.843Z,13.38
2022-10-19T22:54:55.419Z,10.27
2022-10-19T22:57:23.804Z,10.38
2022-10-19T22:59:52.179Z,11.20
2022-10-19T23:02:20.391Z,12.20
2022-10-19T23:04:48.862Z,11.18
2022-10-19T23:07:17.075Z,12.80
2022-10-19T23:09:46.888Z,13.15
2022-10-19T23:12:15.027Z,12.25
2022-10-19T23:14:43.626Z,12.25
2022-10-19T23:17:11.911Z,10.70
2022-10-19T23:19:40.346Z,9.65
2022-10-19T23:22:08.424Z,10.63
2022-10-19T23:24:36.807Z,10.40
2022-10-19T23:27:06.386Z,10.77
2022-10-19T23:29:34.919Z,11.13
2022-10-19T23:32:03.061Z,9.82
2022-10-19T23:34:31.412Z,12.57
2022-10-19T23:36:59.649Z,13.30
2022-10-19T23:39:28.029Z,13.18
2022-10-19T23:41:56.133Z,13.23
2022-10-19T23:44:25.899Z,10.93
2022-10-19T23:46:54.274Z,12.13
2022-10-19T23:49:22.529Z,12.43
2022-10-19T23:51:50.671Z,10.90
2022-10-19T23:54:18.970Z,11.65
2022-10-19T23:56:47.019Z,10.80
2022-10-19T23:59:15.536Z,11.85
